Portada
METAR-TAF:

METAR-TAF

Aeropuertos :

Tarvisio, Italia

latitud: 46-30N, longitud: 013-35E, altitud: 777 m

Observación

El informe se hizo hace 7 horas y 7 minutos, a las 17:55 UTC
Viento 2 kt del este-noreste
Temperatura 20°C
Humedad 43%
Presión 1012 hPa
Visibilidad 10 km o más
Nubes dispersas a una altura de 4000 ft

METAR: LIVO 021755Z 07002KT 9999 SCT040 20/07 Q1012 RMK SCT VIS MIN 9999

Hora: 03:02 (01:02 UTC)


TAF: falta

Observaciones y pronósticos meteorológicos de más de 4000 aeropuertos (mensajes METAR y TAF).

Los puntos amarillos y rojos representan las estaciones disponibles.

Ponga el ratón en el punto deseado para ver el nombre de la estación.

Haga clic para ver las observaciones y los pronósticos meteorológicos.

Para cambiar el mapa : haga clic en los botones verdes con una cruz de color negro para hacer un zoom, en el botón verde con un guión para alejar o en las flechas verdes para mapas adyacentes.


METAR-TAF: